Time;durP1;ratioP1;P1;durP2;ratioP2;P2;SDS_P1;SDS_P2;PMS_P1;PMS_P2;Temp;Humidity;BMP_temperature;BMP_pressure;BME280_temperature;BME280_humidity;BME280_pressure;Samples;Min_cycle;Max_cycle;Signal;HPM_P1;HPM_P2
2021/03/27 00:00:19;;;;;;;;;;;;;;;5.78;60.52;100764.13;1734732;81;20458;-78
2021/03/27 00:02:50;;;;;;;;;;;;;;;5.76;60.64;100760.29;1681024;85;20499;-77
2021/03/27 00:05:21;;;;;;;;;;;;;;;5.74;60.67;100759.06;1683317;85;20921;-77
2021/03/27 00:07:52;;;;;;;;;;;;;;;5.73;60.98;100764.39;1666205;86;20277;-78
2021/03/27 00:10:37;;;;;;;;;;;;;;;5.71;61.10;100764.95;1666176;84;20468;-78
2021/03/27 00:13:13;;;;;;;;;;;;;;;5.69;61.29;100762.84;1684899;84;20231;-78
2021/03/27 00:15:48;;;;;;;;;;;;;;;5.66;61.29;100764.33;1667387;84;20241;-77
2021/03/27 00:18:29;;;;;;;;;;;;;;;5.68;61.50;100762.47;1677024;85;20230;-77
2021/03/27 00:21:03;;;;;;;;;;;;;;;5.66;61.58;100767.79;1672782;85;20231;-77
2021/03/27 00:23:35;;;;;;;;;;;;;;;5.64;61.65;100763.56;1702681;83;22075;-78
2021/03/27 00:26:09;;;;;;;;;;;;;;;5.64;61.76;100761.79;1690953;83;20350;-78
2021/03/27 00:28:53;;;;;;;;;;;;;;;5.64;61.80;100759.63;1662519;85;20224;-79
2021/03/27 00:31:29;;;;;;;;;;;;;;;5.63;61.90;100759.25;1669715;85;20492;-78
2021/03/27 00:34:02;;;;;;;;;;;;;;;5.61;62.02;100767.20;1688526;85;20221;-78
2021/03/27 00:36:46;;;;;;;;;;;;;;;5.61;62.09;100765.05;1665787;84;21532;-77
2021/03/27 00:39:17;;;;;;;;;;;;;;;5.60;62.26;100767.29;1676681;84;20389;-78
2021/03/27 00:41:51;;;;;;;;;;;;;;;5.58;62.57;100762.56;1675217;84;20229;-77
2021/03/27 00:44:18;;;;;;;;;;;;;;;5.55;62.64;100759.65;1684081;84;20283;-79
2021/03/27 00:46:46;;;;;;;;;;;;;;;5.55;62.80;100759.65;1652475;84;20300;-79
2021/03/27 00:49:20;;;;;;;;;;;;;;;5.55;62.84;100758.81;1660784;84;23418;-78
2021/03/27 00:51:52;;;;;;;;;;;;;;;5.54;63.07;100759.73;1694241;84;20314;-79
2021/03/27 00:54:23;;;;;;;;;;;;;;;5.53;63.15;100760.20;1673114;84;20234;-78
2021/03/27 00:57:17;;;;;;;;;;;;;;;5.53;63.24;100765.45;1675596;84;20226;-78
2021/03/27 00:59:57;;;;;;;;;;;;;;;5.53;63.28;100764.59;1684729;84;20225;-79
2021/03/27 01:02:26;;;;;;;;;;;;;;;5.52;63.34;100762.44;1684421;84;22516;-78
2021/03/27 01:05:09;;;;;;;;;;;;;;;5.51;63.45;100763.38;1657622;84;20389;-79
2021/03/27 01:07:38;;;;;;;;;;;;;;;5.50;63.45;100764.30;1694497;84;20585;-79
2021/03/27 01:10:38;;;;;;;;;;;;;;;5.50;63.51;100772.59;1673438;84;20252;-79
2021/03/27 01:13:26;;;;;;;;;;;;;;;5.48;63.53;100767.91;1686626;84;20391;-79
2021/03/27 01:15:57;;;;;;;;;;;;;;;5.47;63.55;100764.44;1685891;84;21146;-78
2021/03/27 01:18:31;;;;;;;;;;;;;;;5.46;63.57;100757.51;1691737;84;21218;-79
2021/03/27 01:21:01;;;;;;;;;;;;;;;5.46;63.71;100767.98;1683456;84;20357;-78
2021/03/27 01:23:28;;;;;;;;;;;;;;;5.44;63.77;100766.77;1678708;84;22268;-77
2021/03/27 01:25:59;;;;;;;;;;;;;;;5.43;63.75;100765.54;1672501;84;20296;-78
2021/03/27 01:28:33;;;;;;;;;;;;;;;5.42;63.80;100763.38;1687353;84;22081;-77
2021/03/27 01:31:23;;;;;;;;;;;;;;;5.43;63.91;100766.38;1699773;84;20454;-77
2021/03/27 01:34:00;;;;;;;;;;;;;;;5.42;64.00;100766.00;1698525;84;20221;-76
2021/03/27 01:36:35;;;;;;;;;;;;;;;5.42;64.20;100769.94;1696769;84;20256;-77
2021/03/27 01:39:12;;;;;;;;;;;;;;;5.43;64.21;100770.78;1690676;84;20247;-77
2021/03/27 01:42:03;;;;;;;;;;;;;;;5.44;64.17;100767.23;1671676;86;22082;-77
2021/03/27 01:44:44;;;;;;;;;;;;;;;5.44;64.20;100773.31;1671495;86;20882;-76
2021/03/27 01:47:30;;;;;;;;;;;;;;;5.45;64.23;100770.23;1682539;84;20495;-76
2021/03/27 01:50:11;;;;;;;;;;;;;;;5.44;64.28;100773.78;1645084;86;20272;-77
2021/03/27 01:52:54;;;;;;;;;;;;;;;5.43;64.30;100772.94;1645099;86;20320;-78
2021/03/27 01:55:42;;;;;;;;;;;;;;;5.43;64.36;100767.69;1641128;86;22079;-77
2021/03/27 01:58:18;;;;;;;;;;;;;;;5.42;64.37;100769.94;1648208;84;20302;-78
2021/03/27 02:00:50;;;;;;;;;;;;;;;5.42;64.53;100773.02;1657989;86;20274;-78
2021/03/27 02:03:33;;;;;;;;;;;;;;;5.41;64.53;100772.17;1646934;86;20245;-73
2021/03/27 02:06:11;;;;;;;;;;;;;;;5.41;64.51;100772.17;1651961;86;20225;-76
2021/03/27 02:08:47;;;;;;;;;;;;;;;5.42;64.59;100771.24;1683315;84;22055;-75
2021/03/27 02:11:27;;;;;;;;;;;;;;;5.42;64.63;100782.19;1669939;85;20362;-75
2021/03/27 02:14:07;;;;;;;;;;;;;;;5.40;64.68;100777.03;1633325;86;20239;-75
2021/03/27 02:16:58;;;;;;;;;;;;;;;5.41;64.73;100775.26;1656092;86;20254;-76
2021/03/27 02:19:37;;;;;;;;;;;;;;;5.40;64.68;100774.41;1671421;85;20274;-76
2021/03/27 02:22:34;;;;;;;;;;;;;;;5.41;64.68;100768.70;1683857;84;22139;-75
2021/03/27 02:25:21;;;;;;;;;;;;;;;5.40;64.67;100771.80;1653608;86;20482;-75
2021/03/27 02:28:01;;;;;;;;;;;;;;;5.41;64.68;100777.41;1656764;86;20483;-75
2021/03/27 02:30:32;;;;;;;;;;;;;;;5.41;64.68;100773.95;1650568;86;20270;-75
2021/03/27 02:33:12;;;;;;;;;;;;;;;5.42;64.65;100779.56;1657459;86;20273;-74
2021/03/27 02:36:17;;;;;;;;;;;;;;;5.41;64.64;100779.19;1661333;86;22790;-75
2021/03/27 02:38:48;;;;;;;;;;;;;;;5.40;64.71;100779.66;1670346;84;21375;-73
2021/03/27 02:41:25;;;;;;;;;;;;;;;5.38;64.75;100778.86;1678183;83;20223;-73
2021/03/27 02:44:01;;;;;;;;;;;;;;;5.37;64.80;100781.09;1674283;85;20744;-75
2021/03/27 02:46:44;;;;;;;;;;;;;;;5.37;64.75;100777.63;1653930;85;20288;-75
2021/03/27 02:49:26;;;;;;;;;;;;;;;5.36;64.75;100779.41;1663328;85;22098;-76
2021/03/27 02:52:07;;;;;;;;;;;;;;;5.34;64.75;100782.58;1686664;85;20393;-76
2021/03/27 02:54:44;;;;;;;;;;;;;;;5.35;64.84;100792.58;1679295;85;20518;-76
2021/03/27 02:57:23;;;;;;;;;;;;;;;5.33;64.82;100785.27;1661198;86;20408;-76
2021/03/27 03:00:03;;;;;;;;;;;;;;;5.32;64.83;100780.97;1661389;85;20226;-74
2021/03/27 03:02:47;;;;;;;;;;;;;;;5.31;64.85;100788.45;1669029;85;22598;-75
2021/03/27 03:05:37;;;;;;;;;;;;;;;5.30;64.85;100784.95;1667636;84;20396;-74
2021/03/27 03:08:34;;;;;;;;;;;;;;;5.31;64.89;100786.67;1661204;86;20218;-74
2021/03/27 03:11:13;;;;;;;;;;;;;;;5.30;64.94;100790.65;1665853;85;20231;-73
2021/03/27 03:13:48;;;;;;;;;;;;;;;5.30;64.98;100791.95;1661208;86;20393;-74
2021/03/27 03:16:30;;;;;;;;;;;;;;;5.28;64.95;100792.50;1689071;85;22060;-74
2021/03/27 03:19:20;;;;;;;;;;;;;;;5.30;64.92;100801.12;1667206;85;20809;-74
2021/03/27 03:21:53;;;;;;;;;;;;;;;5.31;64.95;100797.61;1674543;85;20220;-73
2021/03/27 03:24:40;;;;;;;;;;;;;;;5.29;65.00;100799.44;1650625;85;20230;-73
2021/03/27 03:27:28;;;;;;;;;;;;;;;5.29;65.08;100800.74;1674182;85;20227;-75
2021/03/27 03:30:14;;;;;;;;;;;;;;;5.28;65.08;100805.59;1672115;85;22755;-74
2021/03/27 03:32:50;;;;;;;;;;;;;;;5.29;65.07;100808.60;1661129;85;21107;-75
2021/03/27 03:35:42;;;;;;;;;;;;;;;5.28;65.07;100809.53;1649615;85;20610;-74
2021/03/27 03:38:37;;;;;;;;;;;;;;;5.28;65.07;100802.98;1661129;86;20645;-75
2021/03/27 03:41:11;;;;;;;;;;;;;;;5.28;65.08;100809.53;1641514;87;20540;-74
2021/03/27 03:44:07;;;;;;;;;;;;;;;5.31;65.04;100810.24;1888642;76;20203;-75
2021/03/27 03:46:53;;;;;;;;;;;;;;;5.27;65.06;100813.08;1847571;77;20484;-75
2021/03/27 03:49:51;;;;;;;;;;;;;;;5.26;65.05;100810.08;1835234;77;20513;-75
2021/03/27 03:52:37;;;;;;;;;;;;;;;5.26;65.08;100820.55;1851850;77;20806;-75
2021/03/27 03:55:13;;;;;;;;;;;;;;;5.23;65.06;100811.55;1851784;77;20222;-74
2021/03/27 03:58:10;;;;;;;;;;;;;;;5.23;65.17;100812.86;1840259;77;20485;-74
2021/03/27 04:00:51;;;;;;;;;;;;;;;5.21;65.18;100819.48;1824895;77;20244;-74
2021/03/27 04:03:31;;;;;;;;;;;;;;;5.23;65.26;100823.33;1820868;77;22050;-74
2021/03/27 04:06:01;;;;;;;;;;;;;;;5.22;65.34;100816.41;1827333;77;20236;-74
2021/03/27 04:08:41;;;;;;;;;;;;;;;5.22;65.40;100819.02;1845633;77;20230;-74
2021/03/27 04:11:25;;;;;;;;;;;;;;;5.22;65.48;100826.87;1847774;77;20206;-74
2021/03/27 04:13:52;;;;;;;;;;;;;;;5.24;65.49;100823.72;1831328;77;20212;-75
2021/03/27 04:16:21;;;;;;;;;;;;;;;5.24;65.45;100825.03;1826557;76;22940;-75
2021/03/27 04:19:13;;;;;;;;;;;;;;;5.27;65.43;100829.63;1835552;77;20369;-75
2021/03/27 04:21:59;;;;;;;;;;;;;;;5.30;65.43;100829.94;1829194;77;20218;-75
2021/03/27 04:24:33;;;;;;;;;;;;;;;5.29;65.42;100830.86;1762631;79;20691;-76
2021/03/27 04:27:29;;;;;;;;;;;;;;;5.27;65.43;100828.79;1800481;79;20543;-76
2021/03/27 04:30:09;;;;;;;;;;;;;;;5.27;65.46;100831.41;1788465;80;21890;-76
2021/03/27 04:32:45;;;;;;;;;;;;;;;5.27;65.46;100837.95;1776330;80;20826;-74
2021/03/27 04:35:32;;;;;;;;;;;;;;;5.26;65.46;100833.64;1791950;80;20213;-74
2021/03/27 04:38:12;;;;;;;;;;;;;;;5.27;65.44;100835.34;1747410;80;20354;-74
2021/03/27 04:40:47;;;;;;;;;;;;;;;5.28;65.45;100835.72;1791614;80;20217;-75
2021/03/27 04:43:21;;;;;;;;;;;;;;;5.28;65.50;100837.03;1773224;80;22476;-74
2021/03/27 04:46:05;;;;;;;;;;;;;;;5.28;65.49;100841.80;1776609;80;21296;-75
2021/03/27 04:48:56;;;;;;;;;;;;;;;5.30;65.48;100843.03;1759173;80;20219;-75
2021/03/27 04:51:37;;;;;;;;;;;;;;;5.32;65.45;100847.75;1759561;80;21125;-74
2021/03/27 04:54:08;;;;;;;;;;;;;;;5.33;65.47;100850.75;1779203;80;20219;-74
2021/03/27 04:56:44;;;;;;;;;;;;;;;5.33;65.44;100847.67;1765628;80;22495;-74
2021/03/27 04:59:32;;;;;;;;;;;;;;;5.36;65.44;100854.52;1778512;80;20382;-74
2021/03/27 05:02:05;;;;;;;;;;;;;;;5.37;65.39;100852.28;1755599;80;20231;-75
2021/03/27 05:04:42;;;;;;;;;;;;;;;5.39;65.41;100847.81;1775488;80;21135;-74
2021/03/27 05:07:19;;;;;;;;;;;;;;;5.41;65.40;100855.16;1779858;80;20238;-75
2021/03/27 05:10:07;;;;;;;;;;;;;;;5.44;65.40;100853.68;1781308;80;22367;-74
2021/03/27 05:12:43;;;;;;;;;;;;;;;5.45;65.31;100858.84;1778876;80;20336;-74
2021/03/27 05:15:36;;;;;;;;;;;;;;;5.50;65.27;100861.24;1778353;80;20231;-75
2021/03/27 05:18:19;;;;;;;;;;;;;;;5.53;65.17;100866.78;1756144;80;20237;-74
2021/03/27 05:20:51;;;;;;;;;;;;;;;5.54;65.12;100857.53;1769634;80;20249;-75
2021/03/27 05:23:47;;;;;;;;;;;;;;;5.58;65.08;100867.37;1781391;80;22056;-75
2021/03/27 05:26:46;;;;;;;;;;;;;;;5.61;65.06;100862.84;1756691;80;20689;-75
2021/03/27 05:29:20;;;;;;;;;;;;;;;5.66;64.88;100861.29;1767972;80;20604;-75
2021/03/27 05:31:54;;;;;;;;;;;;;;;5.70;64.80;100868.94;1781395;80;20253;-75
2021/03/27 05:34:33;;;;;;;;;;;;;;;5.74;64.79;100869.61;1771106;80;20228;-74
2021/03/27 05:37:07;;;;;;;;;;;;;;;5.77;64.60;100864.66;1756375;80;21870;-75
2021/03/27 05:40:12;;;;;;;;;;;;;;;5.79;64.52;100862.38;1781375;80;20836;-76
2021/03/27 05:42:51;;;;;;;;;;;;;;;5.82;64.39;100862.20;1756091;80;20213;-76
2021/03/27 05:45:31;;;;;;;;;;;;;;;5.87;64.39;100865.42;1781996;80;20267;-75
2021/03/27 05:48:24;;;;;;;;;;;;;;;5.94;64.29;100864.21;1778313;80;20269;-78
2021/03/27 05:51:08;;;;;;;;;;;;;;;5.99;64.22;100871.85;1793556;80;22899;-75
2021/03/27 05:53:59;;;;;;;;;;;;;;;6.07;64.15;100881.45;1794939;80;20502;-76
2021/03/27 05:57:06;;;;;;;;;;;;;;;6.13;64.01;100871.95;1768395;80;20267;-77
2021/03/27 05:59:43;;;;;;;;;;;;;;;6.16;63.80;100870.47;1768880;80;21111;-75
2021/03/27 06:02:31;;;;;;;;;;;;;;;6.18;63.73;100871.27;1761334;80;20496;-77
2021/03/27 06:05:15;;;;;;;;;;;;;;;6.22;63.66;100871.94;1767732;80;21662;-76
2021/03/27 06:08:06;;;;;;;;;;;;;;;6.26;63.75;100876.92;1758981;80;20375;-84
2021/03/27 06:10:52;;;;;;;;;;;;;;;6.34;63.74;100879.14;1779036;80;20600;-74
2021/03/27 06:13:29;;;;;;;;;;;;;;;6.48;63.68;100883.66;1784157;80;20515;-75
2021/03/27 06:16:22;;;;;;;;;;;;;;;6.59;63.61;100883.92;1769012;80;20248;-74
2021/03/27 06:19:10;;;;;;;;;;;;;;;6.69;63.33;100889.05;1759943;80;22077;-74
2021/03/27 06:21:41;;;;;;;;;;;;;;;6.75;63.09;100888.69;1789236;80;20482;-75
2021/03/27 06:24:18;;;;;;;;;;;;;;;6.79;62.99;100885.45;1768653;80;20260;-77
2021/03/27 06:27:04;;;;;;;;;;;;;;;6.81;63.15;100889.67;1787501;79;20233;-73
2021/03/27 06:30:01;;;;;;;;;;;;;;;6.89;62.92;100891.88;1802944;79;20571;-77
2021/03/27 06:32:50;;;;;;;;;;;;;;;6.94;62.81;100889.83;1770186;79;22556;-73
2021/03/27 06:35:44;;;;;;;;;;;;;;;6.95;62.67;100888.92;1764789;81;20441;-76
2021/03/27 06:38:24;;;;;;;;;;;;;;;6.99;62.70;100890.90;1799031;79;20486;-76
2021/03/27 06:41:04;;;;;;;;;;;;;;;7.07;62.76;100891.31;1787541;79;21034;-77
2021/03/27 06:43:38;;;;;;;;;;;;;;;7.20;62.64;100892.30;1751891;79;20388;-78
2021/03/27 06:46:12;;;;;;;;;;;;;;;7.30;62.43;100896.56;1781885;79;21964;-78
2021/03/27 06:49:01;;;;;;;;;;;;;;;7.34;62.35;100896.31;1772077;80;20243;-79
2021/03/27 06:51:56;;;;;;;;;;;;;;;7.40;62.28;100894.63;1777429;79;20272;-77
2021/03/27 06:54:38;;;;;;;;;;;;;;;7.50;62.15;100904.61;1775233;80;20266;-81
2021/03/27 06:57:26;;;;;;;;;;;;;;;7.56;61.92;100896.38;1776415;80;20215;-75
2021/03/27 07:00:13;;;;;;;;;;;;;;;7.62;61.62;100899.94;1784351;80;22065;-76
2021/03/27 07:03:02;;;;;;;;;;;;;;;7.67;61.64;100901.37;1760713;81;20374;-74
2021/03/27 07:06:07;;;;;;;;;;;;;;;7.78;61.35;100899.89;1801694;79;20499;-74
2021/03/27 07:08:42;;;;;;;;;;;;;;;7.85;61.15;100902.08;1739055;80;21393;-76
2021/03/27 07:11:45;;;;;;;;;;;;;;;7.94;61.05;100903.31;1776972;80;20217;-76
2021/03/27 07:14:34;;;;;;;;;;;;;;;8.02;60.51;100903.70;1765349;80;20376;-74
2021/03/27 07:17:06;;;;;;;;;;;;;;;8.09;60.48;100903.69;1729574;80;20954;-75
2021/03/27 07:20:02;;;;;;;;;;;;;;;8.20;60.18;100901.72;1777841;80;20237;-74
2021/03/27 07:22:37;;;;;;;;;;;;;;;8.31;60.08;100897.98;1759244;80;20248;-75
2021/03/27 07:25:26;;;;;;;;;;;;;;;8.42;59.58;100897.34;1789659;80;20222;-75
2021/03/27 07:28:24;;;;;;;;;;;;;;;8.48;59.04;100903.05;1786439;80;23194;-77
2021/03/27 07:31:07;;;;;;;;;;;;;;;8.56;58.90;100898.63;1784939;79;20226;-75
2021/03/27 07:33:44;;;;;;;;;;;;;;;8.66;58.98;100902.38;1765694;80;20244;-79
2021/03/27 07:36:26;;;;;;;;;;;;;;;8.78;58.26;100900.75;1774987;80;20224;-78
2021/03/27 07:39:09;;;;;;;;;;;;;;;8.80;58.13;100904.16;1779812;80;20222;-77
2021/03/27 07:41:57;;;;;;;;;;;;;;;8.86;57.77;100907.70;1721930;80;21667;-77
2021/03/27 07:44:29;;;;;;;;;;;;;;;8.93;57.88;100902.89;1774443;80;20374;-78
2021/03/27 07:47:18;;;;;;;;;;;;;;;9.09;57.52;100907.09;1770600;80;20223;-79
2021/03/27 07:50:10;;;;;;;;;;;;;;;9.18;56.57;100907.81;1756091;80;20738;-82
2021/03/27 07:53:10;;;;;;;;;;;;;;;9.17;56.48;100908.76;1768868;80;20291;-77
2021/03/27 07:55:51;;;;;;;;;;;;;;;9.22;56.21;100911.55;1773314;80;22030;-77
2021/03/27 08:01:37;;;;;;;;;;;;;;;9.27;56.26;100917.39;1736364;82;20287;-77
2021/03/27 08:04:43;;;;;;;;;;;;;;;9.46;56.71;100913.91;1738654;82;20246;-80
2021/03/27 08:07:29;;;;;;;;;;;;;;;9.67;55.77;100917.75;1733694;81;20238;-76
2021/03/27 08:10:22;;;;;;;;;;;;;;;9.75;54.92;100920.73;1737339;81;21448;-82
2021/03/27 08:13:19;;;;;;;;;;;;;;;9.80;54.68;100918.23;1734220;82;20379;-79
2021/03/27 08:16:14;;;;;;;;;;;;;;;9.87;54.09;100920.37;1744432;82;20295;-76
2021/03/27 08:19:07;;;;;;;;;;;;;;;9.98;54.21;100919.63;1752124;81;20308;-77
2021/03/27 08:22:05;;;;;;;;;;;;;;;10.14;53.56;100916.33;1745632;82;20282;-80
2021/03/27 08:24:43;;;;;;;;;;;;;;;10.25;53.63;100916.45;1736467;82;21783;-73
2021/03/27 08:27:35;;;;;;;;;;;;;;;10.42;53.17;100919.70;1737456;82;21829;-76
2021/03/27 08:30:39;;;;;;;;;;;;;;;10.48;52.66;100910.88;1751066;82;20271;-74
2021/03/27 08:33:33;;;;;;;;;;;;;;;10.58;52.74;100917.20;1747304;81;20897;-74
2021/03/27 08:36:17;;;;;;;;;;;;;;;10.72;52.41;100914.07;1752547;81;20272;-77
2021/03/27 08:39:06;;;;;;;;;;;;;;;10.79;51.90;100910.02;1737544;81;22513;-78
2021/03/27 08:41:43;;;;;;;;;;;;;;;10.81;51.86;100912.94;1734627;82;20372;-75
2021/03/27 08:44:26;;;;;;;;;;;;;;;10.77;50.79;100910.12;1731650;82;20283;-77
2021/03/27 08:46:59;;;;;;;;;;;;;;;10.68;51.49;100908.62;1698348;82;21275;-76
2021/03/27 08:50:05;;;;;;;;;;;;;;;10.78;51.72;100906.53;1643585;86;20942;-77
2021/03/27 08:52:45;;;;;;;;;;;;;;;10.90;51.15;100900.83;1652914;86;22012;-78
2021/03/27 08:55:50;;;;;;;;;;;;;;;10.89;50.93;100905.27;1663518;84;20247;-80
2021/03/27 08:58:49;;;;;;;;;;;;;;;10.97;51.43;100902.56;1667936;84;20553;-81
2021/03/27 09:01:35;;;;;;;;;;;;;;;11.18;51.33;100903.62;1685360;84;20337;-79
2021/03/27 09:04:36;;;;;;;;;;;;;;;11.36;50.63;100902.27;1663263;84;20289;-80
2021/03/27 09:07:10;;;;;;;;;;;;;;;11.52;49.18;100903.31;1677003;84;22085;-78
2021/03/27 09:10:04;;;;;;;;;;;;;;;11.60;48.99;100904.91;1661075;84;20318;-77
2021/03/27 09:13:04;;;;;;;;;;;;;;;11.72;49.46;100903.12;1675581;84;20258;-79
2021/03/27 09:16:04;;;;;;;;;;;;;;;11.86;48.64;100905.59;1647018;84;20969;-80
2021/03/27 09:18:48;;;;;;;;;;;;;;;11.81;48.79;100897.66;1662450;85;20302;-84
2021/03/27 09:21:27;;;;;;;;;;;;;;;11.91;48.33;100906.58;1658929;84;23494;-80
2021/03/27 09:24:09;;;;;;;;;;;;;;;12.02;48.40;100902.63;1673542;84;20832;-81
2021/03/27 09:27:01;;;;;;;;;;;;;;;12.19;48.62;100898.20;1674221;84;20284;-80
2021/03/27 09:29:55;;;;;;;;;;;;;;;12.32;47.89;100900.23;1680614;84;20359;-81
2021/03/27 09:32:49;;;;;;;;;;;;;;;12.42;47.54;100899.03;1651652;85;20231;-77
2021/03/27 09:35:32;;;;;;;;;;;;;;;12.54;46.78;100896.73;1677154;84;20587;-77
2021/03/27 09:38:15;;;;;;;;;;;;;;;12.69;46.95;100893.84;1644119;84;20791;-78
2021/03/27 09:40:49;;;;;;;;;;;;;;;12.90;46.35;100905.36;1690332;84;20283;-75
2021/03/27 09:43:42;;;;;;;;;;;;;;;12.97;46.23;100903.91;1687127;83;21458;-74
2021/03/27 09:46:31;;;;;;;;;;;;;;;13.05;46.11;100898.83;1689614;84;20278;-74
2021/03/27 09:49:19;;;;;;;;;;;;;;;13.17;45.48;100893.00;1699140;83;22653;-75
2021/03/27 09:52:00;;;;;;;;;;;;;;;13.24;45.17;100894.22;1686241;83;20374;-73
2021/03/27 09:54:35;;;;;;;;;;;;;;;13.34;44.69;100899.13;1673856;85;20513;-71
2021/03/27 09:57:14;;;;;;;;;;;;;;;13.42;44.09;100898.50;1668285;84;20488;-73
2021/03/27 09:59:46;;;;;;;;;;;;;;;13.40;43.72;100893.30;1660594;85;20276;-72
2021/03/27 10:02:29;;;;;;;;;;;;;;;13.60;43.04;100890.30;1661297;85;22105;-70
2021/03/27 10:05:34;;;;;;;;;;;;;;;13.80;44.14;100886.45;1659213;85;20387;-72
2021/03/27 10:08:20;;;;;;;;;;;;;;;14.15;43.19;100886.95;1569572;90;20420;-74
2021/03/27 10:11:03;;;;;;;;;;;;;;;14.44;38.73;100893.72;1567974;90;20482;-75
2021/03/27 10:13:55;;;;;;;;;;;;;;;14.17;38.48;100888.98;1629011;84;20225;-76
2021/03/27 10:16:29;;;;;;;;;;;;;;;13.94;39.37;100889.63;1678776;84;21903;-73
2021/03/27 10:19:06;;;;;;;;;;;;;;;14.10;40.31;100891.83;1681534;84;21377;-74
2021/03/27 10:21:52;;;;;;;;;;;;;;;14.20;38.82;100887.41;1675196;84;20288;-72
2021/03/27 10:24:30;;;;;;;;;;;;;;;14.19;39.28;100891.53;1667900;84;20477;-73
2021/03/27 10:27:26;;;;;;;;;;;;;;;14.35;40.15;100877.73;1671203;84;20291;-75
2021/03/27 10:30:05;;;;;;;;;;;;;;;14.70;39.85;100884.82;1684367;83;20393;-77
2021/03/27 10:32:36;;;;;;;;;;;;;;;14.98;36.55;100882.37;1663801;85;20674;-74
2021/03/27 10:35:13;;;;;;;;;;;;;;;14.94;37.22;100872.47;1676696;85;20246;-80
2021/03/27 10:37:54;;;;;;;;;;;;;;;14.97;36.62;100878.87;1688918;83;20467;-78
2021/03/27 10:40:28;;;;;;;;;;;;;;;14.90;36.80;100880.39;1650663;85;20275;-85
2021/03/27 10:43:17;;;;;;;;;;;;;;;14.72;36.83;100885.52;1642049;85;21406;-74
2021/03/27 10:46:06;;;;;;;;;;;;;;;14.64;37.19;100885.84;1678928;84;20328;-82
2021/03/27 10:49:05;;;;;;;;;;;;;;;14.59;37.75;100884.94;1701568;82;20215;-80
2021/03/27 10:51:53;;;;;;;;;;;;;;;14.76;38.13;100876.77;1703351;83;20467;-80
2021/03/27 10:54:24;;;;;;;;;;;;;;;15.02;37.39;100869.12;1712550;82;20240;-81
2021/03/27 10:57:05;;;;;;;;;;;;;;;15.32;37.02;100874.32;1703081;82;21843;-83
2021/03/27 10:59:56;;;;;;;;;;;;;;;15.58;36.27;100874.59;1704482;82;20273;-77
2021/03/27 11:02:58;;;;;;;;;;;;;;;15.83;35.22;100875.86;1699904;82;20237;-81
2021/03/27 11:06:03;;;;;;;;;;;;;;;15.98;35.12;100877.56;1702309;83;20302;-83
2021/03/27 11:08:54;;;;;;;;;;;;;;;16.12;32.11;100879.78;1643530;85;20276;-81
2021/03/27 11:11:35;;;;;;;;;;;;;;;16.21;32.88;100877.58;1712734;82;22087;-77
2021/03/27 11:14:35;;;;;;;;;;;;;;;16.52;32.36;100872.81;1712872;82;20422;-79
2021/03/27 11:17:41;;;;;;;;;;;;;;;16.59;31.28;100883.20;1706200;82;20232;-78
2021/03/27 11:20:24;;;;;;;;;;;;;;;16.18;30.59;100875.67;1688779;82;20483;-80
2021/03/27 11:23:10;;;;;;;;;;;;;;;15.95;32.03;100877.37;1706122;83;20945;-80
2021/03/27 11:25:52;;;;;;;;;;;;;;;16.12;31.90;100882.94;1704160;84;22093;-84
2021/03/27 11:28:25;;;;;;;;;;;;;;;16.38;31.62;100868.45;1706625;82;20640;-81
2021/03/27 11:31:00;;;;;;;;;;;;;;;16.71;31.33;100872.39;1718136;82;20217;-82
2021/03/27 11:33:42;;;;;;;;;;;;;;;17.03;32.03;100878.08;1710635;82;20910;-79
2021/03/27 11:36:13;;;;;;;;;;;;;;;17.29;30.62;100880.00;1722456;82;20217;-78
2021/03/27 11:38:57;;;;;;;;;;;;;;;17.44;30.11;100878.45;1705721;82;22356;-79
2021/03/27 11:41:45;;;;;;;;;;;;;;;17.51;30.51;100879.52;1703294;82;20825;-76
2021/03/27 11:44:36;;;;;;;;;;;;;;;17.60;29.95;100873.75;1705574;82;20280;-78
2021/03/27 11:47:06;;;;;;;;;;;;;;;17.47;29.51;100878.16;1698990;82;20489;-81
2021/03/27 11:49:38;;;;;;;;;;;;;;;17.12;29.91;100871.83;1695638;83;20504;-74
2021/03/27 11:52:10;;;;;;;;;;;;;;;16.60;30.33;100873.41;1710497;83;22106;-75
2021/03/27 11:54:56;;;;;;;;;;;;;;;16.01;31.18;100881.27;1710683;83;20388;-75
2021/03/27 11:57:28;;;;;;;;;;;;;;;15.67;32.38;100890.25;1715505;83;20486;-76
2021/03/27 12:00:50;;;;;;;;;;;;;;;15.65;32.95;100877.08;1709957;83;20658;-76
2021/03/27 12:03:44;;;;;;;;;;;;;;;15.92;32.82;100872.34;1722726;82;20269;-78
2021/03/27 12:06:52;;;;;;;;;;;;;;;16.47;31.35;100868.40;1698365;83;22058;-75
2021/03/27 12:09:41;;;;;;;;;;;;;;;16.80;31.64;100868.34;1715524;82;20263;-81
2021/03/27 12:12:37;;;;;;;;;;;;;;;17.36;31.07;100865.02;1709736;82;20261;-77
2021/03/27 12:15:25;;;;;;;;;;;;;;;17.62;31.06;100865.91;1707112;82;20488;-82
2021/03/27 12:18:12;;;;;;;;;;;;;;;17.67;31.14;100868.97;1703421;82;20239;-78
2021/03/27 12:21:07;;;;;;;;;;;;;;;17.27;32.07;100870.78;1686196;84;22498;-78
2021/03/27 12:23:43;;;;;;;;;;;;;;;16.75;32.52;100873.77;1676209;85;21298;-78
2021/03/27 12:26:17;;;;;;;;;;;;;;;16.34;33.43;100882.57;1673568;85;20217;-75
2021/03/27 12:28:54;;;;;;;;;;;;;;;16.03;34.33;100886.82;1676329;85;20530;-75
2021/03/27 12:31:31;;;;;;;;;;;;;;;15.78;34.45;100879.92;1677293;84;20221;-74
2021/03/27 12:34:14;;;;;;;;;;;;;;;15.51;34.33;100881.46;1676312;85;22074;-81
2021/03/27 12:36:57;;;;;;;;;;;;;;;15.17;35.15;100877.06;1672109;85;20497;-73
2021/03/27 12:39:57;;;;;;;;;;;;;;;14.93;35.50;100887.23;1676321;85;20257;-76
2021/03/27 12:42:34;;;;;;;;;;;;;;;14.75;36.24;100886.56;1657580;84;20515;-77
2021/03/27 12:45:11;;;;;;;;;;;;;;;14.65;36.42;100883.53;1701932;84;20501;-77
2021/03/27 12:47:42;;;;;;;;;;;;;;;14.53;36.46;100888.12;1697860;84;22171;-77
2021/03/27 12:50:29;;;;;;;;;;;;;;;14.42;36.56;100889.03;1654809;85;20828;-77
2021/03/27 12:53:09;;;;;;;;;;;;;;;14.40;36.74;100886.16;1676341;85;20216;-77
2021/03/27 12:56:14;;;;;;;;;;;;;;;14.40;36.92;100895.47;1676275;85;20308;-77
2021/03/27 12:58:45;;;;;;;;;;;;;;;14.38;37.14;100898.72;1695586;84;20222;-77
2021/03/27 13:01:41;;;;;;;;;;;;;;;14.36;37.17;100895.36;1701839;83;22107;-77
2021/03/27 13:04:31;;;;;;;;;;;;;;;14.37;37.34;100896.55;1678623;84;20953;-77
2021/03/27 13:07:03;;;;;;;;;;;;;;;14.26;36.93;100890.00;1680149;85;20275;-77
2021/03/27 13:09:52;;;;;;;;;;;;;;;14.16;36.93;100887.30;1680154;85;20232;-79
2021/03/27 13:12:28;;;;;;;;;;;;;;;14.00;36.99;100884.30;1690472;84;20246;-79
2021/03/27 13:15:26;;;;;;;;;;;;;;;13.95;37.50;100889.14;1695052;82;22007;-79
2021/03/27 13:18:02;;;;;;;;;;;;;;;13.87;37.21;100883.64;1708416;84;20247;-77
2021/03/27 13:20:39;;;;;;;;;;;;;;;13.72;37.89;100887.97;1707132;84;20266;-78
2021/03/27 13:23:16;;;;;;;;;;;;;;;13.72;38.28;100888.45;1684597;83;20473;-79
2021/03/27 13:25:53;;;;;;;;;;;;;;;13.74;38.38;100886.02;1680236;84;20240;-79
2021/03/27 13:28:24;;;;;;;;;;;;;;;13.80;38.50;100881.14;1680308;84;22840;-79
2021/03/27 13:30:54;;;;;;;;;;;;;;;14.03;39.17;100881.37;1688791;84;21250;-80
2021/03/27 13:33:53;;;;;;;;;;;;;;;14.44;38.58;100874.27;1707122;84;20223;-78
2021/03/27 13:36:38;;;;;;;;;;;;;;;14.89;38.55;100866.25;1701288;84;21912;-80
2021/03/27 13:39:28;;;;;;;;;;;;;;;15.31;37.09;100865.98;1695911;84;20222;-79
2021/03/27 13:42:27;;;;;;;;;;;;;;;15.43;35.78;100864.02;1680215;85;21996;-79
2021/03/27 13:45:25;;;;;;;;;;;;;;;15.30;35.39;100858.15;1668406;84;20935;-78
2021/03/27 13:47:56;;;;;;;;;;;;;;;15.24;36.07;100869.34;1708650;84;20215;-77
2021/03/27 13:50:36;;;;;;;;;;;;;;;15.20;35.19;100867.47;1708596;84;21297;-74
2021/03/27 13:53:22;;;;;;;;;;;;;;;15.03;35.07;100865.48;1708725;84;20575;-76
2021/03/27 13:55:56;;;;;;;;;;;;;;;14.89;36.08;100867.58;1707801;84;22345;-76
2021/03/27 13:58:33;;;;;;;;;;;;;;;15.08;35.24;100866.77;1708574;84;20385;-75
2021/03/27 14:01:06;;;;;;;;;;;;;;;15.33;35.67;100868.02;1707796;83;20231;-76
2021/03/27 14:03:46;;;;;;;;;;;;;;;15.69;35.72;100863.81;1685774;85;20474;-79
2021/03/27 14:06:23;;;;;;;;;;;;;;;16.08;35.61;100866.39;1685939;85;20402;-77
2021/03/27 14:09:20;;;;;;;;;;;;;;;16.41;33.97;100863.67;1685456;84;22975;-74